Time;durP1;ratioP1;P1;durP2;ratioP2;P2;SDS_P1;SDS_P2;PMS_P1;PMS_P2;Temp;Humidity;BMP_temperature;BMP_pressure;BME280_temperature;BME280_humidity;BME280_pressure;Samples;Min_cycle;Max_cycle;Signal;HPM_P1;HPM_P2
2022/05/10 00:00:30;;;;;;;18.92;8.38;;;;;;;11.51;85.38;101896.16;1039898;28;20501;-77
2022/05/10 00:01:03;;;;;;;14.30;7.13;;;;;;;11.52;85.42;101889.78;1040247;28;20367;-77
2022/05/10 00:01:37;;;;;;;11.63;6.57;;;;;;;11.46;84.66;101888.69;1043913;28;20048;-77
2022/05/10 00:02:11;;;;;;;13.50;7.15;;;;;;;11.56;84.99;101897.19;1039298;28;20048;-77
2022/05/10 00:02:46;;;;;;;15.68;6.72;;;;;;;11.74;84.74;101892.13;1039365;28;20162;-77
2022/05/10 00:03:18;;;;;;;13.20;7.82;;;;;;;11.77;84.36;101891.75;1041137;28;20104;-77
2022/05/10 00:03:50;;;;;;;19.70;6.07;;;;;;;11.80;84.03;101895.91;1041173;28;20038;-77
2022/05/10 00:04:21;;;;;;;16.73;7.32;;;;;;;11.81;84.18;101891.41;1039705;28;20046;-77
2022/05/10 00:04:53;;;;;;;10.02;7.38;;;;;;;11.85;83.96;101895.31;1039581;28;20318;-77
2022/05/10 00:05:28;;;;;;;15.85;6.97;;;;;;;11.86;84.00;101889.78;1039909;28;20049;-77
2022/05/10 00:06:00;;;;;;;17.17;7.70;;;;;;;11.82;83.76;101888.53;1039823;28;20129;-77
2022/05/10 00:06:43;;;;;;;13.25;6.68;;;;;;;11.95;83.84;101890.41;1039561;28;20084;-77
2022/05/10 00:07:18;;;;;;;13.65;7.07;;;;;;;11.92;83.72;101893.50;1038385;28;20583;-77
2022/05/10 00:07:49;;;;;;;16.17;8.00;;;;;;;11.95;83.50;101893.91;1033734;28;20050;-77
2022/05/10 00:08:21;;;;;;;13.90;7.53;;;;;;;11.96;83.45;101889.41;1035164;28;20479;-77
2022/05/10 00:08:54;;;;;;;12.55;7.32;;;;;;;12.03;83.59;101888.41;1035454;28;20045;-77
2022/05/10 00:09:29;;;;;;;13.02;7.78;;;;;;;12.10;82.78;101895.63;1033753;28;20042;-77
2022/05/10 00:10:02;;;;;;;18.13;7.85;;;;;;;12.13;82.70;101889.88;1040551;28;20041;-77
2022/05/10 00:10:35;;;;;;;12.73;7.35;;;;;;;12.11;82.90;101894.59;1043638;28;20110;-77
2022/05/10 00:11:07;;;;;;;19.15;7.85;;;;;;;12.10;82.56;101882.28;1043897;28;20041;-77
2022/05/10 00:11:39;;;;;;;15.23;7.72;;;;;;;12.07;82.41;101884.31;1044078;28;20295;-77
2022/05/10 00:12:10;;;;;;;16.77;8.02;;;;;;;11.99;82.81;101886.31;1043720;28;20423;-77
2022/05/10 00:12:42;;;;;;;23.35;7.63;;;;;;;11.95;83.36;101891.25;1039664;28;20495;-77
2022/05/10 00:13:14;;;;;;;33.45;8.60;;;;;;;11.84;83.52;101883.81;1037349;28;20403;-77
2022/05/10 00:13:46;;;;;;;16.00;9.18;;;;;;;11.87;83.56;101885.25;1039841;28;20785;-77
2022/05/10 00:14:17;;;;;;;22.23;8.98;;;;;;;11.43;83.81;101889.09;1043881;28;20527;-77
2022/05/10 00:14:49;;;;;;;22.92;8.13;;;;;;;11.14;84.53;101887.47;1037304;28;20044;-77
2022/05/10 00:15:21;;;;;;;18.98;8.65;;;;;;;10.94;85.31;101894.47;1039382;28;20300;-77
2022/05/10 00:15:52;;;;;;;26.20;9.80;;;;;;;11.11;86.35;101896.69;1035775;28;20096;-77
2022/05/10 00:16:24;;;;;;;17.08;7.47;;;;;;;11.00;86.02;101894.56;1030178;28;20046;-77
2022/05/10 00:16:56;;;;;;;26.02;9.10;;;;;;;10.94;86.67;101894.47;1038787;28;20048;-77
2022/05/10 00:17:34;;;;;;;22.05;7.32;;;;;;;10.98;87.20;101896.59;1035665;28;20524;-77
2022/05/10 00:18:08;;;;;;;17.08;7.60;;;;;;;10.96;86.89;101890.63;1032582;28;20047;-77
2022/05/10 00:18:41;;;;;;;22.65;8.23;;;;;;;10.72;87.03;101891.84;1033411;28;20099;-77
2022/05/10 00:19:14;;;;;;;19.08;7.03;;;;;;;10.61;88.16;101895.00;1033017;28;20309;-77
2022/05/10 00:19:46;;;;;;;21.77;7.13;;;;;;;10.54;88.56;101888.81;1036387;28;20058;-78
2022/05/10 00:20:23;;;;;;;23.17;7.45;;;;;;;10.84;88.24;101900.97;1040356;28;20467;-77
2022/05/10 00:20:54;;;;;;;29.15;7.47;;;;;;;11.06;88.19;101893.78;1036892;28;20500;-77
2022/05/10 00:21:26;;;;;;;15.02;7.47;;;;;;;10.93;87.86;101892.84;1035523;28;20046;-77
2022/05/10 00:22:00;;;;;;;9.35;6.90;;;;;;;10.79;87.68;101892.72;1031150;28;20168;-77
2022/05/10 00:22:32;;;;;;;11.93;6.85;;;;;;;10.62;88.54;101886.00;1033012;28;20479;-77
2022/05/10 00:23:03;;;;;;;19.20;7.00;;;;;;;10.62;88.66;101888.66;1040090;28;20038;-77
2022/05/10 00:23:35;;;;;;;9.45;7.45;;;;;;;10.82;88.96;101889.69;1043532;28;20037;-77
2022/05/10 00:24:07;;;;;;;10.05;7.13;;;;;;;11.06;87.80;101887.63;1040190;28;20052;-77
2022/05/10 00:24:39;;;;;;;16.88;7.78;;;;;;;11.19;87.62;101886.88;1043741;28;20049;-77
2022/05/10 00:25:13;;;;;;;11.52;6.78;;;;;;;11.21;87.28;101891.00;1043433;28;20044;-77
2022/05/10 00:25:45;;;;;;;15.13;7.05;;;;;;;11.24;86.66;101890.63;1040500;28;20037;-77
2022/05/10 00:26:17;;;;;;;9.63;6.50;;;;;;;11.25;87.07;101892.28;1043148;28;20303;-77
2022/05/10 00:26:48;;;;;;;15.40;6.90;;;;;;;11.40;86.43;101887.66;1039377;28;20073;-77
2022/05/10 00:27:20;;;;;;;12.48;6.20;;;;;;;11.43;85.98;101887.25;1039549;28;20046;-77
2022/05/10 00:27:53;;;;;;;11.52;6.68;;;;;;;11.24;86.22;101885.31;1034573;28;20381;-80
2022/05/10 00:28:26;;;;;;;12.52;7.10;;;;;;;10.91;86.72;101884.22;1036626;28;20780;-78
2022/05/10 00:28:57;;;;;;;14.13;6.68;;;;;;;10.95;86.94;101885.47;1034207;28;20042;-80
2022/05/10 00:29:29;;;;;;;10.98;7.15;;;;;;;11.10;86.98;101888.88;1033285;28;20050;-81
2022/05/10 00:30:01;;;;;;;13.55;8.60;;;;;;;11.14;87.09;101887.47;1039592;28;20037;-81
2022/05/10 00:30:33;;;;;;;16.33;7.05;;;;;;;11.13;87.40;101893.81;1040311;28;20464;-81
2022/05/10 00:31:08;;;;;;;10.18;6.30;;;;;;;11.28;86.65;101891.06;1042435;28;20052;-78
2022/05/10 00:31:40;;;;;;;9.73;6.85;;;;;;;11.22;86.44;101887.31;1043244;28;20072;-77
2022/05/10 00:32:11;;;;;;;8.77;6.00;;;;;;;11.23;86.20;101889.00;1040223;28;20495;-77
2022/05/10 00:32:45;;;;;;;12.82;7.88;;;;;;;11.32;86.08;101882.47;1035920;28;20072;-77
2022/05/10 00:33:22;;;;;;;9.52;6.15;;;;;;;11.34;86.03;101879.63;1031128;28;20527;-77
2022/05/10 00:33:53;;;;;;;9.20;6.47;;;;;;;11.30;85.54;101878.34;1028708;28;20043;-77
2022/05/10 00:34:28;;;;;;;12.68;7.75;;;;;;;11.37;85.64;101882.72;1033964;28;20073;-77
2022/05/10 00:35:00;;;;;;;11.38;6.43;;;;;;;11.41;85.45;101875.97;1037310;28;20049;-77
2022/05/10 00:35:34;;;;;;;13.60;7.32;;;;;;;11.40;85.52;101873.50;1036387;28;20049;-77
2022/05/10 00:36:10;;;;;;;10.02;6.85;;;;;;;11.37;84.97;101879.22;1035183;28;20054;-77
2022/05/10 00:36:41;;;;;;;9.40;7.82;;;;;;;11.39;85.18;101882.50;1035405;28;20045;-77
2022/05/10 00:37:14;;;;;;;12.38;7.18;;;;;;;10.92;86.06;101880.53;1033340;28;20416;-77
2022/05/10 00:37:48;;;;;;;10.75;6.82;;;;;;;11.16;86.11;101877.44;1026376;28;20087;-77
2022/05/10 00:38:21;;;;;;;8.30;7.28;;;;;;;10.82;86.17;101875.53;1032310;28;20038;-77
2022/05/10 00:38:53;;;;;;;7.95;6.43;;;;;;;11.13;86.11;101878.66;1032198;28;20455;-77
2022/05/10 00:39:24;;;;;;;10.05;6.57;;;;;;;11.18;86.03;101875.38;1032800;28;20038;-77
2022/05/10 00:39:56;;;;;;;12.93;7.05;;;;;;;10.86;85.61;101865.31;1035924;28;20042;-77
2022/05/10 00:40:31;;;;;;;7.18;6.20;;;;;;;10.41;86.52;101873.53;1039890;28;20037;-77
2022/05/10 00:41:06;;;;;;;9.43;5.90;;;;;;;10.01;88.17;101882.88;1040149;28;20601;-77
2022/05/10 00:41:58;;;;;;;9.40;6.35;;;;;;;10.32;88.35;101873.81;1039477;28;20045;-77
2022/05/10 00:42:41;;;;;;;9.57;5.95;;;;;;;10.33;88.53;101872.81;1035306;28;20069;-77
2022/05/10 00:43:28;;;;;;;9.93;6.70;;;;;;;10.31;88.25;101878.31;1035612;28;20098;-77
2022/05/10 00:44:15;;;;;;;11.05;6.45;;;;;;;10.37;88.31;101872.22;1035025;28;20046;-77
2022/05/10 00:44:53;;;;;;;8.60;5.75;;;;;;;10.44;88.09;101873.16;1040067;28;20042;-77
2022/05/10 00:46:19;;;;;;;6.63;5.70;;;;;;;10.49;87.82;101876.06;1039293;28;20115;-77
2022/05/10 00:47:05;;;;;;;12.20;6.35;;;;;;;10.66;87.93;101876.63;1026931;28;20065;-77
2022/05/10 00:47:40;;;;;;;15.25;6.50;;;;;;;10.41;88.14;101872.72;1026804;28;20050;-77
2022/05/10 00:48:22;;;;;;;16.30;5.63;;;;;;;10.42;88.42;101866.38;1020815;29;20307;-77
2022/05/10 00:48:58;;;;;;;7.60;5.93;;;;;;;10.33;88.34;101870.16;1023363;29;20417;-77
2022/05/10 00:49:37;;;;;;;9.60;7.13;;;;;;;10.38;88.94;101873.06;1038960;28;20082;-77
2022/05/10 00:50:10;;;;;;;11.25;6.35;;;;;;;10.26;89.27;101869.25;1039017;28;20303;-77
2022/05/10 00:51:39;;;;;;;12.00;6.63;;;;;;;10.46;89.18;101864.97;1039016;28;20041;-77
2022/05/10 00:52:18;;;;;;;14.80;7.88;;;;;;;10.26;89.14;101866.59;1026796;28;20047;-77
2022/05/10 00:53:07;;;;;;;17.17;8.30;;;;;;;10.24;89.38;101861.47;1023065;28;20039;-77
2022/05/10 00:53:54;;;;;;;16.23;8.13;;;;;;;10.29;89.98;101852.91;1019151;29;20287;-78
2022/05/10 00:54:34;;;;;;;13.20;8.25;;;;;;;10.19;90.17;101859.34;1019692;29;20372;-77
2022/05/10 00:55:11;;;;;;;10.63;8.40;;;;;;;10.12;90.06;101861.06;1022966;29;20314;-77
2022/05/10 00:55:50;;;;;;;12.63;7.55;;;;;;;10.08;90.46;101857.16;1026143;28;20039;-77
2022/05/10 00:56:30;;;;;;;9.70;8.35;;;;;;;10.26;90.45;101858.59;1023879;29;20525;-77
2022/05/10 00:57:26;;;;;;;11.57;8.05;;;;;;;10.13;90.65;101852.06;1019700;29;20043;-77
2022/05/10 00:58:16;;;;;;;21.73;9.23;;;;;;;10.24;90.81;101860.63;1038833;28;20526;-80
2022/05/10 00:58:56;;;;;;;11.75;8.30;;;;;;;9.94;90.46;101857.19;1043666;28;20033;-80
2022/05/10 00:59:34;;;;;;;11.13;7.72;;;;;;;10.26;90.83;101858.59;1042199;28;20434;-80
2022/05/10 01:00:20;;;;;;;16.00;8.20;;;;;;;10.39;90.16;101858.72;1043980;28;20037;-80
2022/05/10 01:00:55;;;;;;;11.65;8.15;;;;;;;10.14;90.32;101853.75;1043341;28;20380;-80
2022/05/10 01:01:31;;;;;;;11.52;7.65;;;;;;;10.15;90.74;101850.09;1035324;28;20041;-80
2022/05/10 01:02:11;;;;;;;16.20;9.10;;;;;;;10.15;90.29;101852.75;1039049;28;20529;-80
2022/05/10 01:02:46;;;;;;;13.30;8.85;;;;;;;10.13;90.16;101849.41;1035208;28;20415;-81
2022/05/10 01:03:37;;;;;;;13.45;7.88;;;;;;;10.40;89.90;101855.03;1040685;28;20080;-81
2022/05/10 01:04:35;;;;;;;16.67;8.48;;;;;;;10.30;89.78;101849.22;1043926;28;20037;-80
2022/05/10 01:05:32;;;;;;;13.38;8.60;;;;;;;10.40;89.29;101852.38;1041666;28;20033;-80
2022/05/10 01:06:28;;;;;;;8.13;6.97;;;;;;;10.41;89.02;101846.91;1039786;28;20308;-80
2022/05/10 01:07:07;;;;;;;12.27;8.45;;;;;;;10.55;88.74;101853.16;1033323;28;20361;-80
2022/05/10 01:07:49;;;;;;;14.20;6.88;;;;;;;10.52;88.64;101853.53;1036325;28;20049;-80
2022/05/10 01:08:50;;;;;;;21.20;9.15;;;;;;;10.46;88.36;101854.31;1035712;28;20332;-77
2022/05/10 01:09:32;;;;;;;11.00;6.40;;;;;;;10.35;88.45;101846.81;1033197;28;20301;-78
2022/05/10 01:10:11;;;;;;;10.48;7.93;;;;;;;10.26;88.64;101842.63;1038201;28;20350;-77
2022/05/10 01:10:57;;;;;;;12.95;7.78;;;;;;;10.37;88.53;101852.78;1039304;28;20307;-78
2022/05/10 01:11:53;;;;;;;11.07;7.75;;;;;;;10.39;88.51;101843.56;1038524;28;20312;-77
2022/05/10 01:12:32;;;;;;;9.20;7.45;;;;;;;10.09;89.06;101837.50;1037212;28;20347;-77
2022/05/10 01:13:19;;;;;;;13.10;8.70;;;;;;;10.04;89.31;101839.91;1040591;28;20430;-77
2022/05/10 01:14:30;;;;;;;10.63;7.28;;;;;;;10.06;90.13;101842.38;1039297;28;20049;-78
2022/05/10 01:15:05;;;;;;;8.70;7.78;;;;;;;10.22;89.39;101836.88;1035324;28;20307;-77
2022/05/10 01:15:37;;;;;;;8.70;7.68;;;;;;;10.24;89.19;101842.81;1035452;28;20292;-77
2022/05/10 01:16:14;;;;;;;17.27;8.85;;;;;;;10.17;89.61;101837.41;1039311;28;20314;-77
2022/05/10 01:16:46;;;;;;;12.85;8.20;;;;;;;10.28;89.83;101829.94;1036531;28;20301;-77
2022/05/10 01:17:17;;;;;;;10.30;8.00;;;;;;;10.15;88.94;101834.09;1040634;28;21191;-77
2022/05/10 01:17:52;;;;;;;12.27;7.72;;;;;;;10.16;89.35;101833.09;1039464;28;20299;-77
2022/05/10 01:18:24;;;;;;;8.48;7.63;;;;;;;9.98;89.72;101835.34;1040306;28;20299;-77
2022/05/10 01:18:55;;;;;;;15.43;8.23;;;;;;;9.94;89.83;101825.25;1043257;28;20303;-77
2022/05/10 01:19:29;;;;;;;11.68;8.07;;;;;;;10.13;89.87;101832.63;1040606;28;20419;-77
2022/05/10 01:20:01;;;;;;;16.33;9.00;;;;;;;10.25;89.50;101827.66;1043346;28;20040;-77
2022/05/10 01:20:39;;;;;;;13.30;9.48;;;;;;;10.01;89.72;101829.63;1043352;28;20529;-77
2022/05/10 01:21:28;;;;;;;10.63;8.02;;;;;;;10.20;89.10;101830.88;1043361;28;20831;-77
2022/05/10 01:22:11;;;;;;;13.25;8.68;;;;;;;10.27;89.30;101830.97;1041757;28;20823;-77
2022/05/10 01:22:53;;;;;;;12.77;10.15;;;;;;;10.29;89.27;101829.75;1043020;28;20309;-77
2022/05/10 01:23:44;;;;;;;12.38;8.95;;;;;;;10.47;89.71;101834.66;1043299;28;20334;-77
2022/05/10 01:24:22;;;;;;;18.95;9.55;;;;;;;10.51;89.23;101833.25;1043421;28;20669;-77
2022/05/10 01:25:02;;;;;;;20.30;10.07;;;;;;;10.53;88.92;101829.38;1044254;28;20045;-80
2022/05/10 01:25:48;;;;;;;53.20;11.48;;;;;;;10.60;89.37;101828.59;1039706;28;20345;-80
2022/05/10 01:26:42;;;;;;;60.15;11.88;;;;;;;10.68;88.93;101831.13;1039556;28;20530;-77
2022/05/10 01:27:47;;;;;;;46.55;12.02;;;;;;;10.80;88.67;101832.25;1040599;28;20586;-77
2022/05/10 01:28:19;;;;;;;57.75;12.27;;;;;;;10.56;88.45;101828.16;1043537;28;20040;-77
2022/05/10 01:28:52;;;;;;;30.60;11.30;;;;;;;10.54;88.54;101835.53;1043048;28;20303;-77
2022/05/10 01:29:44;;;;;;;33.63;10.32;;;;;;;10.72;88.44;101827.91;1041914;28;20299;-77
2022/05/10 01:30:29;;;;;;;26.48;10.70;;;;;;;10.72;88.44;101833.22;1039499;28;20303;-77
2022/05/10 01:31:05;;;;;;;26.30;9.63;;;;;;;10.65;87.47;101819.00;1039929;28;20315;-77
2022/05/10 01:33:29;;;;;;;22.85;8.57;;;;;;;10.55;87.76;101831.84;1039513;28;20910;-77
2022/05/10 01:33:44;;;;;;;29.50;9.48;;;;;;;10.67;87.82;101826.81;1038926;28;20308;-77
2022/05/10 01:34:19;;;;;;;28.60;10.32;;;;;;;10.44;87.86;101827.88;1042014;28;20356;-77
2022/05/10 01:34:55;;;;;;;17.77;9.30;;;;;;;10.06;89.37;101829.06;1038806;28;20292;-77
2022/05/10 01:35:29;;;;;;;15.32;9.02;;;;;;;10.17;88.85;101831.25;1039053;28;20300;-77
2022/05/10 01:36:12;;;;;;;12.90;8.13;;;;;;;10.25;89.28;101825.00;1035350;28;20308;-77
2022/05/10 01:36:52;;;;;;;12.45;7.72;;;;;;;10.30;88.53;101826.06;1037370;28;20303;-77
2022/05/10 01:37:26;;;;;;;11.63;8.20;;;;;;;10.35;88.51;101825.50;1037690;28;20801;-77
2022/05/10 01:38:05;;;;;;;9.38;8.20;;;;;;;9.96;89.31;101826.72;1038772;28;20322;-77
2022/05/10 01:38:51;;;;;;;16.48;8.45;;;;;;;10.14;88.27;101821.81;1033640;28;20081;-77
2022/05/10 01:39:44;;;;;;;12.02;7.95;;;;;;;9.92;89.73;101825.44;1031120;28;20312;-77
2022/05/10 01:40:31;;;;;;;16.73;8.30;;;;;;;10.16;89.66;101822.44;1037031;28;20488;-77
2022/05/10 01:41:32;;;;;;;9.10;8.00;;;;;;;9.71;90.09;101825.41;1043527;28;20704;-77
2022/05/10 01:42:22;;;;;;;9.75;8.75;;;;;;;10.03;90.09;101826.78;1035265;28;20092;-77
2022/05/10 01:43:13;;;;;;;12.98;7.63;;;;;;;9.96;90.67;101824.06;1042390;28;20053;-77
2022/05/10 01:43:49;;;;;;;;;;;;;;;9.95;90.80;101833.06;1043511;28;20349;-77
2022/05/10 01:44:33;;;;;;;9.50;7.32;;;;;;;10.17;90.60;101823.28;1039140;28;19928;-77
2022/05/10 01:45:09;;;;;;;10.15;7.25;;;;;;;10.11;90.20;101819.50;1034988;28;20304;-77
2022/05/10 01:46:02;;;;;;;13.43;7.65;;;;;;;10.24;90.10;101824.19;1034218;28;20300;-77
2022/05/10 01:46:34;;;;;;;9.35;7.75;;;;;;;10.29;90.22;101824.44;1034068;28;20304;-77
2022/05/10 01:47:36;;;;;;;12.25;8.05;;;;;;;10.51;89.34;101819.94;1033532;28;20857;-77
2022/05/10 01:48:10;;;;;;;12.88;7.72;;;;;;;10.23;89.43;101824.38;1031136;28;20304;-77
2022/05/10 01:48:43;;;;;;;8.98;7.97;;;;;;;10.37;89.39;101831.47;1036207;28;20652;-77
2022/05/10 01:49:23;;;;;;;10.27;8.77;;;;;;;10.49;89.40;101829.97;1035063;28;20304;-77
2022/05/10 01:50:07;;;;;;;14.75;8.90;;;;;;;10.56;88.97;101817.50;1037517;28;20054;-77
2022/05/10 01:50:47;;;;;;;14.77;7.53;;;;;;;10.41;89.08;101816.78;1042726;28;20315;-77
2022/05/10 01:51:30;;;;;;;21.25;8.75;;;;;;;10.34;89.22;101815.88;1034949;28;20304;-77
2022/05/10 01:52:09;;;;;;;13.98;7.38;;;;;;;10.00;89.96;101822.66;1037698;28;20322;-77
2022/05/10 01:53:07;;;;;;;14.13;8.00;;;;;;;10.23;89.14;101821.72;1038550;28;20386;-77
2022/05/10 01:53:40;;;;;;;11.75;8.52;;;;;;;10.01;89.80;101818.16;1030897;28;20309;-77
2022/05/10 01:54:34;;;;;;;16.92;8.75;;;;;;;10.27;90.07;101821.13;1030973;28;20824;-77
2022/05/10 01:55:19;;;;;;;16.52;8.65;;;;;;;9.93;90.14;101816.47;1027574;28;20310;-77
2022/05/10 01:55:52;;;;;;;12.70;9.02;;;;;;;9.98;89.94;101819.38;1040960;28;20311;-77
2022/05/10 01:56:26;;;;;;;14.07;9.13;;;;;;;10.16;89.77;101814.47;1042818;28;20044;-77
2022/05/10 01:56:57;;;;;;;13.70;8.13;;;;;;;10.12;89.73;101820.31;1039311;28;20300;-77
2022/05/10 01:57:30;;;;;;;14.00;9.30;;;;;;;10.07;90.38;101820.06;1039309;28;20296;-77
2022/05/10 01:58:23;;;;;;;10.93;8.35;;;;;;;9.99;89.99;101820.19;1039242;28;20304;-80
2022/05/10 01:58:55;;;;;;;14.40;7.82;;;;;;;10.16;90.03;101817.13;1042042;28;20307;-77
2022/05/10 01:59:27;;;;;;;13.50;9.05;;;;;;;10.02;90.78;101810.00;1039490;28;20303;-77
2022/05/10 02:00:11;;;;;;;12.10;8.77;;;;;;;10.20;89.87;101815.75;1042256;28;20295;-77
2022/05/10 02:00:55;;;;;;;13.63;8.52;;;;;;;10.24;89.70;101812.72;1039465;28;21059;-77
2022/05/10 02:01:32;;;;;;;12.75;8.73;;;;;;;10.12;90.46;101821.16;1043268;28;20279;-77
2022/05/10 02:02:05;;;;;;;11.48;9.13;;;;;;;10.25;90.31;101811.69;1043691;28;20318;-77
2022/05/10 02:02:40;;;;;;;10.93;9.73;;;;;;;10.31;90.02;101816.25;1039145;28;20915;-77
2022/05/10 02:03:19;;;;;;;18.05;9.60;;;;;;;10.27;89.85;101807.81;1033546;28;20392;-77
2022/05/10 02:04:01;;;;;;;13.38;8.98;;;;;;;10.42;89.45;101810.44;1034882;28;20845;-77
2022/05/10 02:04:36;;;;;;;65.45;12.20;;;;;;;10.27;90.01;101817.66;1032734;28;20294;-77
2022/05/10 02:05:12;;;;;;;103.75;16.63;;;;;;;10.28;89.65;101806.81;1039475;28;20296;-76
2022/05/10 02:05:52;;;;;;;86.55;14.95;;;;;;;10.33;89.75;101812.38;1039882;28;20778;-80
2022/05/10 02:06:37;;;;;;;121.45;25.23;;;;;;;10.43;89.23;101814.75;1039329;28;20771;-77
2022/05/10 02:07:16;;;;;;;87.78;15.38;;;;;;;10.38;89.44;101809.13;1039382;28;20292;-77
2022/05/10 02:07:49;;;;;;;273.92;32.63;;;;;;;10.31;89.24;101808.25;1037557;28;20311;-78
2022/05/10 02:08:39;;;;;;;258.52;29.10;;;;;;;10.34;89.06;101807.88;1038926;28;20334;-78
2022/05/10 02:09:19;;;;;;;124.72;19.35;;;;;;;10.43;89.65;101809.41;1038777;28;20685;-77
2022/05/10 02:10:05;;;;;;;72.68;15.77;;;;;;;10.25;89.92;101809.03;1043274;28;20311;-77
2022/05/10 02:10:40;;;;;;;55.70;12.82;;;;;;;10.41;89.65;101806.13;1035972;28;20049;-77
2022/05/10 02:11:14;;;;;;;43.50;12.27;;;;;;;10.25;89.44;101801.03;1032167;28;20300;-77
2022/05/10 02:12:00;;;;;;;47.03;14.30;;;;;;;10.18;89.93;101801.78;1031134;28;20305;-77
2022/05/10 02:12:39;;;;;;;71.07;14.13;;;;;;;10.20;89.84;101807.75;1037948;28;20303;-77
2022/05/10 02:13:13;;;;;;;32.55;11.85;;;;;;;9.98;90.21;101803.41;1039748;28;20419;-77
2022/05/10 02:14:13;;;;;;;24.05;13.68;;;;;;;10.06;90.51;101807.78;1035846;28;20672;-78
2022/05/10 02:14:52;;;;;;;32.45;13.13;;;;;;;10.07;90.87;101804.09;1031856;28;20313;-77
2022/05/10 02:15:28;;;;;;;31.08;12.07;;;;;;;10.03;90.94;101795.66;1033801;28;20305;-77
2022/05/10 02:16:06;;;;;;;19.25;11.65;;;;;;;10.02;90.86;101799.34;1035797;28;20315;-77
2022/05/10 02:16:54;;;;;;;18.75;11.82;;;;;;;10.19;90.79;101800.75;1038940;28;21289;-77
2022/05/10 02:17:42;;;;;;;19.27;12.73;;;;;;;9.79;90.58;101804.81;1044093;28;20645;-77
2022/05/10 02:18:19;;;;;;;19.33;11.30;;;;;;;10.02;91.36;101804.66;1042812;28;20311;-77
2022/05/10 02:18:56;;;;;;;19.83;11.90;;;;;;;9.81;91.07;101807.28;1043403;28;20307;-77
2022/05/10 02:19:33;;;;;;;20.27;11.15;;;;;;;9.88;91.48;101802.91;1044021;28;20299;-77
2022/05/10 02:20:29;;;;;;;14.57;12.02;;;;;;;9.90;91.68;101800.88;1044259;28;20302;-77
2022/05/10 02:21:08;;;;;;;23.13;12.90;;;;;;;9.72;91.63;101803.09;1040263;28;20303;-77
2022/05/10 02:21:51;;;;;;;17.92;11.10;;;;;;;9.65;92.45;101796.88;1036621;28;20042;-77
2022/05/10 02:22:30;;;;;;;18.67;12.05;;;;;;;9.85;91.74;101800.59;1035701;28;20343;-77
2022/05/10 02:23:09;;;;;;;13.25;11.30;;;;;;;9.67;92.23;101805.50;1039506;28;20311;-77
2022/05/10 02:24:04;;;;;;;23.27;11.45;;;;;;;9.80;91.83;101800.31;1044130;28;20314;-77
2022/05/10 02:24:49;;;;;;;17.30;11.52;;;;;;;9.50;92.77;101800.38;1043067;28;20299;-77
2022/05/10 02:25:26;;;;;;;15.82;11.25;;;;;;;9.82;92.17;101798.28;1040053;28;20300;-76
2022/05/10 02:26:01;;;;;;;14.48;10.38;;;;;;;9.88;92.23;101800.22;1031542;28;20668;-77
2022/05/10 02:26:55;;;;;;;15.23;12.18;;;;;;;9.83;92.79;101794.63;1023530;29;20307;-77
2022/05/10 02:27:40;;;;;;;13.70;10.40;;;;;;;9.57;92.70;101787.97;1023735;29;20302;-77
2022/05/10 02:28:43;;;;;;;15.65;11.18;;;;;;;9.82;92.42;101799.13;1033764;28;20297;-77
2022/05/10 02:29:37;;;;;;;12.57;10.75;;;;;;;9.90;92.11;101790.22;1029864;28;20306;-77
2022/05/10 02:30:13;;;;;;;22.30;11.35;;;;;;;9.57;92.48;101795.97;1044511;28;20292;-77
2022/05/10 02:30:45;;;;;;;21.17;12.23;;;;;;;9.86;92.46;101794.25;1043245;28;20354;-77
2022/05/10 02:31:21;;;;;;;14.60;10.63;;;;;;;9.96;92.49;101784.13;1039620;28;20315;-77
2022/05/10 02:33:06;;;;;;;14.60;11.75;;;;;;;9.74;91.80;101787.78;1040755;28;20292;-77
2022/05/10 02:33:39;;;;;;;13.40;11.20;;;;;;;9.91;91.86;101787.38;1037743;28;20356;-77
2022/05/10 02:34:10;;;;;;;15.68;11.02;;;;;;;9.96;91.92;101789.47;1035695;28;20088;-77
2022/05/10 02:34:47;;;;;;;15.77;10.63;;;;;;;9.88;91.79;101786.94;1031631;28;20867;-78
2022/05/10 02:35:19;;;;;;;16.02;11.63;;;;;;;9.86;91.34;101789.78;1034989;28;20309;-77
2022/05/10 02:35:56;;;;;;;17.05;11.88;;;;;;;9.95;91.77;101787.81;1039588;28;20300;-77
2022/05/10 02:36:33;;;;;;;16.35;11.68;;;;;;;9.70;91.26;101782.00;1036650;28;20301;-78
2022/05/10 02:37:04;;;;;;;22.15;12.00;;;;;;;9.64;91.84;101773.97;1035702;28;20363;-77
2022/05/10 02:37:36;;;;;;;19.05;11.13;;;;;;;9.87;91.88;101783.44;1031564;28;20320;-77
2022/05/10 02:38:10;;;;;;;20.15;12.82;;;;;;;9.87;92.20;101785.28;1030445;28;20340;-77
2022/05/10 02:38:42;;;;;;;21.27;13.48;;;;;;;9.91;92.32;101781.22;1032495;28;20301;-77
2022/05/10 02:39:14;;;;;;;26.52;13.15;;;;;;;9.57;92.08;101785.31;1032404;28;20309;-77
2022/05/10 02:39:45;;;;;;;21.00;12.90;;;;;;;9.67;92.32;101782.38;1037289;28;20312;-77
2022/05/10 02:40:24;;;;;;;20.30;13.05;;;;;;;9.76;92.61;101783.91;1040356;28;20293;-77
2022/05/10 02:40:59;;;;;;;24.60;13.20;;;;;;;9.84;92.17;101785.63;1040089;28;20296;-77
2022/05/10 02:41:31;;;;;;;19.80;12.43;;;;;;;9.96;92.49;101778.81;1039227;28;20311;-77
2022/05/10 02:42:03;;;;;;;27.80;15.13;;;;;;;9.86;92.16;101784.47;1039946;28;20299;-77
2022/05/10 02:42:39;;;;;;;32.72;15.02;;;;;;;9.72;91.87;101776.50;1041736;28;20280;-77
2022/05/10 02:43:12;;;;;;;21.30;12.93;;;;;;;9.59;92.66;101780.66;1041600;28;20296;-77
2022/05/10 02:43:56;;;;;;;30.40;13.88;;;;;;;9.64;92.93;101784.59;1043417;28;20291;-77
2022/05/10 02:44:29;;;;;;;33.95;13.25;;;;;;;9.87;92.51;101779.97;1035847;28;20289;-77
2022/05/10 02:45:03;;;;;;;26.98;16.23;;;;;;;9.86;92.46;101783.59;1034259;28;20344;-77
2022/05/10 02:45:36;;;;;;;25.83;14.20;;;;;;;9.62;93.04;101783.97;1031490;28;20298;-77
2022/05/10 02:46:08;;;;;;;26.52;14.60;;;;;;;9.52;93.37;101781.56;1034014;28;20293;-77
2022/05/10 02:46:42;;;;;;;26.20;14.63;;;;;;;9.55;92.94;101782.03;1037468;28;20303;-77
2022/05/10 02:47:14;;;;;;;16.95;13.00;;;;;;;9.71;92.67;101782.84;1041405;28;20335;-76
2022/05/10 02:47:48;;;;;;;29.83;15.27;;;;;;;9.62;92.98;101771.50;1044667;28;20310;-80
2022/05/10 02:48:22;;;;;;;33.20;14.05;;;;;;;9.57;93.13;101772.03;1040614;28;20136;-80
2022/05/10 02:48:54;;;;;;;26.05;15.20;;;;;;;9.47;93.67;101779.47;1037615;28;20727;-80
2022/05/10 02:49:25;;;;;;;24.90;15.52;;;;;;;9.54;93.29;101775.06;1039644;28;20307;-80
2022/05/10 02:49:57;;;;;;;21.58;15.48;;;;;;;9.74;93.77;101777.13;1040743;28;20302;-80
2022/05/10 02:50:32;;;;;;;16.60;14.95;;;;;;;9.85;93.71;101772.13;1038010;28;20680;-80
2022/05/10 02:51:05;;;;;;;21.05;15.05;;;;;;;9.84;93.63;101774.97;1039986;28;20354;-80
2022/05/10 02:51:36;;;;;;;16.23;14.57;;;;;;;9.77;93.42;101772.25;1039551;28;20297;-79
2022/05/10 02:52:08;;;;;;;23.42;15.25;;;;;;;9.70;93.53;101774.03;1040719;28;20308;-80
2022/05/10 02:52:39;;;;;;;37.42;16.45;;;;;;;9.77;93.49;101780.25;1043699;28;20306;-80
2022/05/10 02:53:11;;;;;;;32.70;15.88;;;;;;;9.90;92.90;101771.59;1044230;28;20307;-80
2022/05/10 02:53:43;;;;;;;22.55;15.00;;;;;;;9.68;92.97;101773.41;1044713;28;20400;-80
2022/05/10 02:54:14;;;;;;;20.23;15.77;;;;;;;9.77;92.92;101764.28;1043895;28;20310;-80
2022/05/10 02:54:45;;;;;;;21.35;16.23;;;;;;;9.65;93.27;101768.44;1043923;28;20385;-80
2022/05/10 02:55:23;;;;;;;28.88;16.52;;;;;;;9.76;93.42;101773.28;1040257;28;20295;-80
2022/05/10 02:55:57;;;;;;;19.10;14.95;;;;;;;9.81;92.64;101770.88;1033322;28;20297;-80
2022/05/10 02:56:29;;;;;;;16.80;14.90;;;;;;;9.54;93.00;101771.56;1035771;28;20305;-80
2022/05/10 02:57:02;;;;;;;17.52;15.30;;;;;;;9.67;93.95;101768.25;1037143;28;20297;-80
2022/05/10 02:57:34;;;;;;;21.60;15.23;;;;;;;9.48;93.36;101765.16;1037908;28;20348;-80
2022/05/10 02:58:18;;;;;;;16.75;15.00;;;;;;;9.54;93.88;101764.41;1041867;28;20342;-78
2022/05/10 02:59:02;;;;;;;22.95;16.00;;;;;;;9.53;94.03;101768.09;1042700;28;20295;-80
2022/05/10 02:59:35;;;;;;;19.90;14.40;;;;;;;9.59;94.39;101767.38;1035708;28;20798;-80